createdAt,value
2023-05-22T00:00:25.537Z,12.22
2023-05-22T00:02:32.925Z,12.22
2023-05-22T00:04:42.614Z,12.21
2023-05-22T00:06:49.380Z,12.22
2023-05-22T00:09:00.385Z,12.21
2023-05-22T00:11:06.568Z,12.20
2023-05-22T00:13:11.950Z,12.18
2023-05-22T00:15:18.028Z,12.18
2023-05-22T00:17:27.932Z,12.18
2023-05-22T00:19:34.118Z,12.19
2023-05-22T00:21:41.866Z,12.16
2023-05-22T00:23:48.981Z,12.18
2023-05-22T00:25:57.386Z,12.16
2023-05-22T00:28:02.519Z,12.19
2023-05-22T00:30:10.620Z,12.21
2023-05-22T00:32:15.695Z,12.17
2023-05-22T00:34:31.898Z,12.16
2023-05-22T00:36:40.313Z,12.15
2023-05-22T00:38:51.026Z,12.12
2023-05-22T00:41:05.716Z,12.15
2023-05-22T00:43:11.336Z,12.14
2023-05-22T00:45:17.812Z,12.15
2023-05-22T00:47:25.551Z,12.07
2023-05-22T00:49:34.163Z,12.10
2023-05-22T00:51:41.894Z,12.15
2023-05-22T00:53:58.124Z,12.19
2023-05-22T00:56:05.510Z,12.19
2023-05-22T00:58:21.095Z,12.19
2023-05-22T01:00:29.922Z,12.14
2023-05-22T01:02:37.943Z,12.15
2023-05-22T01:04:50.410Z,12.17
2023-05-22T01:06:59.457Z,12.18
2023-05-22T01:09:08.255Z,12.18
2023-05-22T01:11:18.215Z,12.15
2023-05-22T01:13:32.986Z,12.16
2023-05-22T01:15:47.233Z,12.12
2023-05-22T01:18:06.382Z,12.14
2023-05-22T01:20:27.996Z,12.21
2023-05-22T01:22:53.103Z,12.13
2023-05-22T01:25:27.833Z,12.10
2023-05-22T01:27:53.961Z,12.08
2023-05-22T01:30:15.970Z,12.08
2023-05-22T01:32:29.320Z,12.05
2023-05-22T01:34:39.581Z,12.08
2023-05-22T01:36:48.005Z,12.12
2023-05-22T01:39:01.189Z,12.08
2023-05-22T01:41:07.699Z,12.07
2023-05-22T01:43:22.222Z,12.05
2023-05-22T01:45:27.618Z,12.08
2023-05-22T01:47:35.973Z,12.08
2023-05-22T01:49:41.405Z,12.10
2023-05-22T01:51:55.694Z,12.10
2023-05-22T01:54:06.625Z,12.09
2023-05-22T01:56:19.938Z,12.08
2023-05-22T01:58:31.820Z,12.07
2023-05-22T02:00:38.615Z,12.09
2023-05-22T02:02:51.442Z,12.11
2023-05-22T02:05:05.936Z,12.11
2023-05-22T02:07:23.942Z,12.08
2023-05-22T02:09:33.453Z,12.04
2023-05-22T02:11:41.029Z,12.08
2023-05-22T02:13:50.582Z,12.07
2023-05-22T02:15:56.106Z,12.08
2023-05-22T02:18:13.176Z,12.05
2023-05-22T02:20:25.036Z,12.10
2023-05-22T02:22:31.545Z,12.11
2023-05-22T02:24:38.112Z,12.10
2023-05-22T02:26:43.274Z,12.12
2023-05-22T02:28:48.632Z,12.12
2023-05-22T02:30:58.317Z,12.07
2023-05-22T02:33:09.613Z,12.07
2023-05-22T02:35:15.019Z,12.08
2023-05-22T02:37:20.933Z,12.07
2023-05-22T02:39:28.122Z,12.08
2023-05-22T02:41:34.407Z,12.07
2023-05-22T02:43:43.655Z,12.07
2023-05-22T02:45:48.730Z,12.05
2023-05-22T02:47:57.190Z,12.07
2023-05-22T02:50:04.721Z,12.08
2023-05-22T02:52:10.169Z,12.08
2023-05-22T02:54:16.482Z,12.06
2023-05-22T02:56:30.955Z,12.04
2023-05-22T02:58:38.685Z,12.02
2023-05-22T03:00:46.259Z,12.00
2023-05-22T03:02:51.727Z,11.98
2023-05-22T03:04:59.250Z,11.98
2023-05-22T03:07:09.945Z,11.96
2023-05-22T03:09:19.666Z,11.98
2023-05-22T03:11:30.481Z,12.05
2023-05-22T03:13:35.993Z,12.07
2023-05-22T03:15:41.756Z,12.11
2023-05-22T03:17:47.027Z,12.14
2023-05-22T03:19:53.272Z,12.09
2023-05-22T03:21:58.508Z,12.10
2023-05-22T03:24:06.411Z,12.11
2023-05-22T03:26:11.945Z,12.12
2023-05-22T03:28:20.475Z,12.08
2023-05-22T03:30:27.763Z,11.99
2023-05-22T03:32:38.493Z,12.11
2023-05-22T03:34:47.200Z,12.14
2023-05-22T03:36:52.242Z,12.10
2023-05-22T03:38:59.031Z,12.13
2023-05-22T03:41:09.519Z,12.15
2023-05-22T03:43:14.559Z,12.21
2023-05-22T03:45:22.313Z,12.19
2023-05-22T03:47:27.525Z,12.22
2023-05-22T03:49:33.605Z,12.27
2023-05-22T03:51:46.092Z,12.28
2023-05-22T03:53:51.748Z,12.33
2023-05-22T03:55:58.231Z,12.33
2023-05-22T03:58:09.911Z,12.35
2023-05-22T04:00:20.078Z,12.37
2023-05-22T04:02:35.814Z,12.38
2023-05-22T04:04:46.834Z,12.44
2023-05-22T04:06:54.615Z,12.42
2023-05-22T04:09:00.560Z,12.43
2023-05-22T04:11:06.111Z,12.40
2023-05-22T04:13:13.678Z,12.42
2023-05-22T04:15:29.088Z,12.42
2023-05-22T04:17:37.923Z,12.44
2023-05-22T04:19:58.161Z,12.45
2023-05-22T04:22:03.368Z,12.45
2023-05-22T04:24:11.510Z,12.50
2023-05-22T04:26:21.160Z,12.52
2023-05-22T04:28:30.594Z,12.51
2023-05-22T04:30:40.756Z,12.59
2023-05-22T04:32:48.360Z,12.56
2023-05-22T04:34:58.728Z,12.59
2023-05-22T04:37:03.859Z,12.62
2023-05-22T04:39:11.746Z,12.64
2023-05-22T04:41:22.580Z,12.64
2023-05-22T04:43:37.210Z,12.66
2023-05-22T04:45:42.616Z,12.60
2023-05-22T04:47:47.748Z,12.62
2023-05-22T04:49:56.460Z,12.70
2023-05-22T04:52:07.434Z,12.67
2023-05-22T04:54:13.974Z,12.74
2023-05-22T04:56:31.778Z,12.83
2023-05-22T04:58:50.125Z,12.89
2023-05-22T05:00:58.478Z,12.90
2023-05-22T05:03:03.756Z,12.90
2023-05-22T05:05:10.015Z,12.93
2023-05-22T05:07:20.321Z,12.91
2023-05-22T05:09:25.275Z,12.94
2023-05-22T05:11:35.320Z,13.02
2023-05-22T05:13:43.237Z,12.97
2023-05-22T05:15:54.688Z,13.07
2023-05-22T05:18:02.173Z,13.21
2023-05-22T05:20:11.104Z,13.32
2023-05-22T05:22:19.156Z,13.24
2023-05-22T05:24:27.714Z,13.10
2023-05-22T05:26:34.946Z,13.14
2023-05-22T05:28:43.004Z,13.08
2023-05-22T05:30:51.772Z,13.21
2023-05-22T05:32:59.831Z,13.26
2023-05-22T05:35:07.929Z,13.20
2023-05-22T05:37:13.077Z,13.27
2023-05-22T05:39:19.703Z,13.24
2023-05-22T05:41:30.518Z,13.29
2023-05-22T05:43:40.481Z,13.24
2023-05-22T05:45:53.880Z,13.33
2023-05-22T05:47:58.910Z,13.38
2023-05-22T05:50:06.586Z,13.33
2023-05-22T05:52:15.055Z,13.33
2023-05-22T05:54:22.212Z,13.34
2023-05-22T05:56:29.093Z,13.44
2023-05-22T05:58:35.645Z,13.52
2023-05-22T06:00:51.855Z,13.70
2023-05-22T06:03:02.527Z,13.81
2023-05-22T06:05:10.186Z,13.89
2023-05-22T06:07:19.344Z,13.98
2023-05-22T06:09:28.718Z,14.13
2023-05-22T06:11:34.278Z,14.29
2023-05-22T06:13:39.703Z,14.76
2023-05-22T06:15:45.314Z,14.90
2023-05-22T06:17:51.389Z,14.83
2023-05-22T06:20:00.538Z,14.83
2023-05-22T06:22:05.621Z,14.79
2023-05-22T06:24:11.308Z,14.77
2023-05-22T06:26:18.188Z,14.56
2023-05-22T06:28:29.139Z,14.63
2023-05-22T06:30:40.149Z,14.77
2023-05-22T06:32:47.003Z,14.74
2023-05-22T06:34:52.850Z,14.77
2023-05-22T06:37:01.557Z,14.85
2023-05-22T06:39:08.843Z,14.69
2023-05-22T06:41:14.426Z,14.67
2023-05-22T06:43:24.534Z,14.73
2023-05-22T06:45:31.771Z,14.81
2023-05-22T06:47:40.247Z,14.78
2023-05-22T06:49:45.619Z,14.81
2023-05-22T06:52:11.442Z,14.93
2023-05-22T06:54:24.211Z,15.11
2023-05-22T06:56:32.438Z,15.07
2023-05-22T06:58:39.903Z,15.13
2023-05-22T07:00:45.440Z,15.41
2023-05-22T07:03:02.693Z,15.70
2023-05-22T07:05:09.433Z,15.92
2023-05-22T07:07:14.922Z,16.40
2023-05-22T07:09:25.442Z,16.38
2023-05-22T07:11:33.130Z,16.43
2023-05-22T07:13:39.181Z,16.22
2023-05-22T07:15:46.553Z,16.34
2023-05-22T07:17:53.073Z,16.46
2023-05-22T07:19:58.056Z,16.51
2023-05-22T07:22:05.284Z,16.68
2023-05-22T07:24:13.260Z,16.82
2023-05-22T07:26:27.949Z,16.97
2023-05-22T07:28:39.110Z,17.10
2023-05-22T07:30:52.006Z,17.38
2023-05-22T07:33:00.014Z,17.69
2023-05-22T07:35:05.275Z,18.02
2023-05-22T07:37:17.153Z,18.54
2023-05-22T07:39:24.591Z,18.26
2023-05-22T07:41:35.093Z,18.75
2023-05-22T07:43:41.233Z,18.83
2023-05-22T07:45:50.806Z,19.18
2023-05-22T07:47:56.599Z,19.07
2023-05-22T07:50:04.537Z,19.08
2023-05-22T07:52:10.613Z,19.77
2023-05-22T07:54:19.446Z,20.16
2023-05-22T07:56:26.196Z,20.41
2023-05-22T07:58:34.888Z,19.82
2023-05-22T08:00:40.065Z,20.27
2023-05-22T08:02:45.698Z,20.06
2023-05-22T08:04:51.935Z,19.78
2023-05-22T08:06:58.190Z,20.29
2023-05-22T08:09:03.635Z,20.28
2023-05-22T08:11:09.011Z,20.85
2023-05-22T08:13:15.903Z,21.21
2023-05-22T08:15:26.344Z,20.99
2023-05-22T08:17:31.331Z,20.74
2023-05-22T08:19:36.860Z,21.00
2023-05-22T08:21:42.000Z,21.22
2023-05-22T08:23:46.946Z,21.75
2023-05-22T08:25:52.767Z,22.25
2023-05-22T08:27:57.816Z,22.24
2023-05-22T08:30:04.027Z,22.11
2023-05-22T08:32:11.820Z,22.53
2023-05-22T08:34:17.617Z,22.43
2023-05-22T08:36:23.557Z,22.00
2023-05-22T08:38:28.680Z,22.88
2023-05-22T08:40:39.696Z,23.34
2023-05-22T08:42:45.862Z,23.19
2023-05-22T08:44:51.950Z,22.77
2023-05-22T08:47:00.052Z,23.12
2023-05-22T08:49:09.716Z,23.14
2023-05-22T08:51:21.550Z,23.33
2023-05-22T08:53:31.118Z,23.20
2023-05-22T08:55:39.972Z,23.52
2023-05-22T08:57:47.023Z,24.17
2023-05-22T08:59:56.067Z,23.95
2023-05-22T09:02:01.988Z,23.16
2023-05-22T09:04:10.804Z,23.17
2023-05-22T09:06:20.116Z,23.65
2023-05-22T09:08:28.822Z,24.06
2023-05-22T09:10:35.566Z,24.19
2023-05-22T09:13:00.804Z,23.56
2023-05-22T09:15:13.993Z,23.70
2023-05-22T09:17:21.173Z,23.79
2023-05-22T09:19:28.866Z,23.72
2023-05-22T09:21:35.645Z,23.38
2023-05-22T09:23:43.984Z,23.87
2023-05-22T09:25:50.928Z,23.41
2023-05-22T09:27:56.806Z,23.54
2023-05-22T09:30:02.513Z,24.15
2023-05-22T09:32:20.331Z,24.74
2023-05-22T09:34:34.069Z,23.79
2023-05-22T09:36:40.424Z,23.87
2023-05-22T09:38:45.380Z,24.49
2023-05-22T09:40:53.007Z,23.72
2023-05-22T09:42:58.313Z,24.45
2023-05-22T09:45:09.786Z,24.27
2023-05-22T09:47:14.938Z,24.42
2023-05-22T09:49:22.632Z,24.45
2023-05-22T09:51:32.153Z,24.88
2023-05-22T09:53:38.141Z,25.18
2023-05-22T09:55:43.927Z,25.63
2023-05-22T09:57:50.931Z,25.86
2023-05-22T09:59:58.652Z,26.00
2023-05-22T10:02:05.036Z,25.73
2023-05-22T10:04:15.469Z,25.71
2023-05-22T10:06:23.473Z,25.33
2023-05-22T10:08:39.691Z,25.18
2023-05-22T10:10:48.588Z,24.86
2023-05-22T10:13:00.803Z,25.06
2023-05-22T10:15:07.697Z,25.47
2023-05-22T10:17:13.400Z,24.94
2023-05-22T10:19:19.404Z,25.37
2023-05-22T10:21:26.073Z,24.86
2023-05-22T10:23:34.443Z,25.43
2023-05-22T10:25:41.650Z,26.19
2023-05-22T10:27:49.817Z,26.47
2023-05-22T10:29:59.518Z,26.54
2023-05-22T10:32:12.420Z,25.96
2023-05-22T10:34:24.523Z,25.04
2023-05-22T10:36:44.316Z,25.17
2023-05-22T10:39:13.865Z,25.20
2023-05-22T10:41:23.259Z,25.66
2023-05-22T10:43:32.970Z,25.94
2023-05-22T10:45:39.844Z,25.87
2023-05-22T10:47:48.580Z,26.22
2023-05-22T10:50:06.779Z,25.72
2023-05-22T10:52:13.218Z,26.14
2023-05-22T10:54:40.001Z,25.51
2023-05-22T10:56:45.727Z,25.13
2023-05-22T10:59:02.959Z,25.42
2023-05-22T11:01:21.254Z,25.01
2023-05-22T11:03:26.482Z,25.22
2023-05-22T11:05:40.078Z,25.29
2023-05-22T11:07:45.167Z,25.00
2023-05-22T11:09:56.188Z,25.05
2023-05-22T11:12:20.737Z,24.82
2023-05-22T11:14:29.292Z,24.42
2023-05-22T11:16:41.896Z,24.93
2023-05-22T11:18:47.322Z,25.53
2023-05-22T11:20:52.679Z,25.50
2023-05-22T11:23:01.152Z,25.86
2023-05-22T11:25:13.996Z,26.23
2023-05-22T11:27:21.985Z,26.13
2023-05-22T11:29:27.600Z,26.24
2023-05-22T11:31:33.241Z,25.97
2023-05-22T11:33:38.394Z,25.93
2023-05-22T11:35:46.227Z,25.91
2023-05-22T11:37:53.408Z,26.06
2023-05-22T11:40:01.251Z,25.96
2023-05-22T11:42:11.622Z,26.41
2023-05-22T11:44:17.625Z,26.75
2023-05-22T11:46:23.230Z,25.86
2023-05-22T11:48:28.496Z,25.00
2023-05-22T11:50:42.503Z,24.55
2023-05-22T11:52:49.626Z,24.67
2023-05-22T11:54:57.331Z,24.85
2023-05-22T11:57:02.441Z,25.80
2023-05-22T11:59:10.222Z,25.82
2023-05-22T12:01:15.172Z,26.44
2023-05-22T12:03:20.929Z,26.00
2023-05-22T12:05:28.729Z,25.87
2023-05-22T12:07:34.709Z,24.63
2023-05-22T12:09:48.204Z,24.32
2023-05-22T12:12:00.746Z,24.37
2023-05-22T12:14:06.599Z,24.27
2023-05-22T12:16:29.031Z,23.82
2023-05-22T12:18:39.314Z,24.06
2023-05-22T12:20:46.852Z,24.26
2023-05-22T12:22:52.401Z,24.46
2023-05-22T12:24:57.545Z,25.07
2023-05-22T12:27:02.469Z,24.29
2023-05-22T12:29:07.642Z,23.99
2023-05-22T12:31:12.571Z,23.98
2023-05-22T12:33:20.772Z,24.06
2023-05-22T12:35:26.573Z,23.44
2023-05-22T12:37:32.192Z,23.25
2023-05-22T12:39:38.040Z,23.20
2023-05-22T12:41:43.087Z,22.46
2023-05-22T12:43:48.643Z,22.60
2023-05-22T12:45:58.297Z,22.38
2023-05-22T12:48:04.755Z,22.81
2023-05-22T12:50:12.818Z,22.50
2023-05-22T12:52:21.116Z,22.43
2023-05-22T12:54:26.269Z,22.90
2023-05-22T12:56:31.926Z,22.68
2023-05-22T12:58:37.024Z,22.68
2023-05-22T13:00:42.336Z,22.99
2023-05-22T13:02:48.231Z,22.84
2023-05-22T13:04:55.279Z,23.12
2023-05-22T13:07:03.277Z,23.12
2023-05-22T13:09:08.354Z,22.73
2023-05-22T13:11:14.938Z,22.75
2023-05-22T13:13:19.837Z,22.99
2023-05-22T13:15:24.734Z,23.25
2023-05-22T13:17:30.628Z,23.40
2023-05-22T13:19:35.843Z,23.28
2023-05-22T13:21:43.544Z,22.79
2023-05-22T13:23:51.939Z,22.94
2023-05-22T13:25:57.180Z,23.08
2023-05-22T13:28:03.080Z,23.10
2023-05-22T13:30:09.649Z,23.37
2023-05-22T13:32:17.001Z,23.03
2023-05-22T13:34:22.638Z,23.08
2023-05-22T13:36:27.884Z,23.44
2023-05-22T13:38:33.218Z,23.39
2023-05-22T13:40:43.263Z,23.42
2023-05-22T13:42:48.635Z,23.21
2023-05-22T13:44:56.490Z,23.92
2023-05-22T13:47:01.533Z,23.82
2023-05-22T13:49:06.764Z,23.64
2023-05-22T13:51:12.095Z,23.29
2023-05-22T13:53:32.415Z,23.16
2023-05-22T13:55:40.664Z,23.31
2023-05-22T13:57:48.626Z,22.97
2023-05-22T13:59:56.291Z,22.52
2023-05-22T14:02:01.390Z,22.65
2023-05-22T14:04:06.655Z,22.65
2023-05-22T14:06:11.917Z,22.49
2023-05-22T14:08:17.559Z,22.33
2023-05-22T14:10:23.410Z,21.97
2023-05-22T14:12:28.852Z,21.63
2023-05-22T14:14:36.943Z,21.94
2023-05-22T14:16:42.343Z,22.16
2023-05-22T14:18:47.972Z,21.81
2023-05-22T14:20:58.507Z,21.91
2023-05-22T14:23:03.610Z,22.00
2023-05-22T14:25:09.689Z,21.94
2023-05-22T14:27:14.702Z,21.58
2023-05-22T14:29:19.817Z,21.61
2023-05-22T14:31:29.967Z,21.17
2023-05-22T14:33:36.073Z,21.73
2023-05-22T14:35:41.418Z,21.77
2023-05-22T14:37:47.967Z,21.92
2023-05-22T14:39:52.933Z,21.87
2023-05-22T14:42:07.156Z,21.60
2023-05-22T14:44:12.379Z,21.81
2023-05-22T14:46:17.834Z,21.92
2023-05-22T14:48:26.952Z,21.51
2023-05-22T14:50:32.141Z,21.87
2023-05-22T14:52:40.313Z,22.18
2023-05-22T14:54:45.750Z,22.13
2023-05-22T14:56:51.483Z,22.28
2023-05-22T14:58:56.581Z,22.59
2023-05-22T15:01:01.661Z,22.44
2023-05-22T15:03:07.181Z,22.00
2023-05-22T15:05:15.209Z,22.42
2023-05-22T15:07:24.367Z,22.46
2023-05-22T15:09:32.709Z,22.49
2023-05-22T15:11:41.228Z,22.59
2023-05-22T15:13:46.840Z,22.57
2023-05-22T15:15:53.932Z,22.27
2023-05-22T15:18:02.842Z,22.35
2023-05-22T15:20:09.635Z,21.87
2023-05-22T15:22:19.790Z,21.51
2023-05-22T15:24:25.279Z,21.68
2023-05-22T15:26:33.216Z,21.79
2023-05-22T15:28:38.178Z,21.33
2023-05-22T15:30:43.938Z,20.98
2023-05-22T15:32:52.092Z,20.64
2023-05-22T15:34:57.114Z,20.73
2023-05-22T15:37:02.231Z,20.36
2023-05-22T15:39:09.891Z,20.64
2023-05-22T15:41:14.938Z,20.91
2023-05-22T15:43:22.716Z,21.39
2023-05-22T15:45:28.860Z,21.25
2023-05-22T15:47:34.075Z,21.59
2023-05-22T15:49:40.751Z,20.95
2023-05-22T15:51:46.019Z,21.26
2023-05-22T15:53:51.978Z,21.17
2023-05-22T15:55:59.593Z,21.45
2023-05-22T15:58:08.022Z,21.61
2023-05-22T16:00:15.237Z,21.24
2023-05-22T16:02:23.793Z,21.53
2023-05-22T16:04:28.974Z,21.64
2023-05-22T16:06:33.924Z,21.53
2023-05-22T16:08:39.083Z,20.77
2023-05-22T16:10:47.211Z,21.12
2023-05-22T16:15:03.275Z,21.29
2023-05-22T16:17:09.643Z,21.51
2023-05-22T16:19:14.873Z,21.32
2023-05-22T16:21:19.872Z,21.38
2023-05-22T16:23:25.098Z,21.21
2023-05-22T16:25:33.012Z,21.04
2023-05-22T16:27:38.136Z,20.83
2023-05-22T16:29:45.792Z,20.59
2023-05-22T16:31:52.346Z,20.61
2023-05-22T16:33:57.734Z,20.48
2023-05-22T16:36:02.777Z,20.91
2023-05-22T16:38:11.951Z,20.84
2023-05-22T16:40:22.503Z,20.42
2023-05-22T16:42:27.733Z,19.91
2023-05-22T16:44:34.879Z,19.97
2023-05-22T16:46:42.414Z,19.89
2023-05-22T16:48:49.787Z,19.41
2023-05-22T16:50:54.939Z,19.32
2023-05-22T16:53:02.456Z,19.29
2023-05-22T16:55:08.434Z,19.04
2023-05-22T16:57:13.385Z,19.12
2023-05-22T16:59:19.750Z,19.07
2023-05-22T17:01:25.121Z,18.70
2023-05-22T17:03:34.491Z,18.63
2023-05-22T17:05:40.255Z,19.14
2023-05-22T17:07:45.786Z,19.01
2023-05-22T17:09:51.850Z,18.87
2023-05-22T17:11:57.110Z,18.46
2023-05-22T17:14:02.237Z,18.42
2023-05-22T17:16:10.264Z,18.53
2023-05-22T17:18:18.119Z,17.94
2023-05-22T17:20:26.973Z,17.66
2023-05-22T17:22:32.254Z,17.61
2023-05-22T17:24:37.321Z,17.67
2023-05-22T17:26:42.936Z,17.87
2023-05-22T17:28:48.773Z,17.74
2023-05-22T17:30:58.976Z,17.82
2023-05-22T17:33:10.320Z,17.49
2023-05-22T17:35:16.110Z,17.39
2023-05-22T17:37:26.491Z,17.44
2023-05-22T17:39:32.012Z,17.11
2023-05-22T17:41:37.758Z,17.14
2023-05-22T17:43:42.756Z,16.95
2023-05-22T17:45:50.996Z,16.81
2023-05-22T17:50:49.841Z,16.82
2023-05-22T17:52:59.644Z,16.85
2023-05-22T17:55:04.729Z,16.67
2023-05-22T17:57:12.467Z,16.54
2023-05-22T17:59:19.755Z,16.37
2023-05-22T18:01:24.720Z,16.27
2023-05-22T18:03:30.339Z,16.35
2023-05-22T18:05:35.984Z,16.14
2023-05-22T18:07:41.443Z,16.08
2023-05-22T18:09:52.194Z,16.00
2023-05-22T18:12:02.656Z,16.03
2023-05-22T18:14:07.799Z,15.84
2023-05-22T18:16:13.081Z,16.10
2023-05-22T18:18:20.745Z,16.00
2023-05-22T18:20:26.021Z,15.95
2023-05-22T18:22:31.519Z,15.91
2023-05-22T18:24:36.843Z,16.03
2023-05-22T18:26:44.559Z,15.89
2023-05-22T18:28:51.890Z,16.10
2023-05-22T18:30:58.429Z,16.19
2023-05-22T18:33:04.044Z,16.42
2023-05-22T18:35:09.700Z,16.19
2023-05-22T18:37:14.735Z,16.27
2023-05-22T18:39:22.372Z,16.11
2023-05-22T18:41:27.561Z,16.09
2023-05-22T18:43:35.417Z,16.15
2023-05-22T18:45:43.494Z,15.94
2023-05-22T18:47:48.774Z,15.87
2023-05-22T18:49:56.524Z,15.73
2023-05-22T18:52:02.055Z,15.71
2023-05-22T18:54:07.155Z,15.79
2023-05-22T18:56:12.105Z,15.68
2023-05-22T18:58:21.350Z,15.59
2023-05-22T19:00:29.055Z,15.50
2023-05-22T19:02:34.188Z,15.49
2023-05-22T19:04:39.432Z,15.46
2023-05-22T19:06:44.517Z,15.36
2023-05-22T19:08:52.430Z,15.48
2023-05-22T19:11:02.170Z,15.31
2023-05-22T19:13:07.215Z,15.28
2023-05-22T19:15:17.295Z,15.17
2023-05-22T19:17:27.612Z,15.14
2023-05-22T19:19:36.945Z,15.06
2023-05-22T19:21:45.484Z,14.98
2023-05-22T19:23:51.637Z,14.93
2023-05-22T19:26:01.430Z,14.95
2023-05-22T19:28:07.470Z,14.82
2023-05-22T19:30:15.361Z,14.77
2023-05-22T19:32:22.202Z,14.63
2023-05-22T19:34:31.120Z,14.49
2023-05-22T19:36:40.684Z,14.30
2023-05-22T19:38:56.352Z,14.12
2023-05-22T19:41:16.245Z,13.91
2023-05-22T19:43:23.934Z,14.01
2023-05-22T19:45:29.277Z,14.07
2023-05-22T19:47:34.453Z,14.02
2023-05-22T19:49:42.697Z,14.04
2023-05-22T19:51:51.010Z,14.09
2023-05-22T19:53:56.248Z,13.95
2023-05-22T19:56:02.306Z,13.87
2023-05-22T19:58:07.842Z,13.72
2023-05-22T20:00:14.205Z,13.59
2023-05-22T20:02:19.361Z,13.49
2023-05-22T20:04:24.472Z,13.36
2023-05-22T20:06:33.884Z,13.24
2023-05-22T20:08:39.462Z,13.38
2023-05-22T20:10:44.974Z,13.36
2023-05-22T20:12:50.188Z,13.40
2023-05-22T20:14:57.279Z,13.44
2023-05-22T20:17:03.276Z,13.27
2023-05-22T20:19:09.460Z,13.27
2023-05-22T20:21:17.147Z,13.31
2023-05-22T20:23:25.301Z,13.29
2023-05-22T20:25:30.697Z,13.23
2023-05-22T20:27:36.111Z,13.27
2023-05-22T20:29:41.508Z,13.20
2023-05-22T20:31:52.000Z,13.21
2023-05-22T20:33:59.397Z,13.23
2023-05-22T20:36:04.733Z,13.25
2023-05-22T20:38:14.594Z,13.21
2023-05-22T20:40:29.955Z,13.26
2023-05-22T20:42:36.784Z,13.18
2023-05-22T20:44:42.369Z,13.16
2023-05-22T20:46:47.656Z,13.18
2023-05-22T20:48:58.079Z,13.22
2023-05-22T20:51:03.049Z,13.25
2023-05-22T20:53:08.666Z,13.30
2023-05-22T20:55:13.644Z,13.30
2023-05-22T20:57:24.753Z,13.32
2023-05-22T20:59:39.728Z,13.29
2023-05-22T21:01:46.139Z,13.37
2023-05-22T21:03:56.888Z,13.42
2023-05-22T21:06:05.116Z,13.34
2023-05-22T21:08:20.466Z,13.41
2023-05-22T21:10:28.362Z,13.51
2023-05-22T21:12:40.887Z,13.51
2023-05-22T21:14:55.171Z,13.57
2023-05-22T21:17:08.775Z,13.58
2023-05-22T21:19:17.735Z,13.53
2023-05-22T21:21:41.993Z,13.58
2023-05-22T21:23:48.900Z,13.58
2023-05-22T21:26:03.222Z,13.67
2023-05-22T21:28:12.851Z,13.73
2023-05-22T21:30:25.875Z,13.72
2023-05-22T21:32:36.405Z,13.77
2023-05-22T21:34:45.636Z,13.79
2023-05-22T21:36:52.742Z,13.80
2023-05-22T21:39:00.520Z,13.82
2023-05-22T21:41:05.653Z,13.79
2023-05-22T21:43:13.986Z,13.79
2023-05-22T21:45:19.736Z,13.82
2023-05-22T21:47:31.914Z,13.92
2023-05-22T21:49:39.464Z,13.88
2023-05-22T21:51:44.792Z,13.75
2023-05-22T21:53:50.327Z,13.86
2023-05-22T21:55:57.397Z,13.82
2023-05-22T21:58:02.382Z,13.78
2023-05-22T22:00:11.606Z,13.80
2023-05-22T22:02:17.596Z,13.75
2023-05-22T22:04:25.872Z,13.72
2023-05-22T22:06:31.260Z,13.67
2023-05-22T22:08:37.739Z,13.66
2023-05-22T22:10:45.795Z,13.70
2023-05-22T22:12:52.243Z,13.70
2023-05-22T22:14:57.413Z,13.78
2023-05-22T22:17:06.064Z,13.79
2023-05-22T22:19:11.870Z,13.69
2023-05-22T22:21:18.152Z,13.54
2023-05-22T22:23:24.596Z,13.41
2023-05-22T22:25:34.388Z,13.30
2023-05-22T22:27:39.960Z,13.14
2023-05-22T22:29:45.507Z,13.14
2023-05-22T22:31:57.133Z,13.00
2023-05-22T22:34:11.666Z,13.00
2023-05-22T22:36:18.145Z,12.91
2023-05-22T22:38:24.723Z,12.85
2023-05-22T22:40:32.906Z,12.77
2023-05-22T22:42:38.651Z,12.70
2023-05-22T22:44:44.389Z,12.84
2023-05-22T22:46:50.890Z,12.87
2023-05-22T22:49:05.651Z,12.81
2023-05-22T22:51:10.886Z,12.72
2023-05-22T22:53:17.528Z,12.52
2023-05-22T22:55:28.192Z,12.54
2023-05-22T22:57:33.647Z,12.52
2023-05-22T22:59:40.606Z,12.54
2023-05-22T23:01:46.133Z,12.50
2023-05-22T23:03:52.706Z,12.35
2023-05-22T23:06:00.876Z,12.21
2023-05-22T23:08:05.925Z,12.23
2023-05-22T23:10:14.681Z,12.28
2023-05-22T23:12:21.782Z,12.30
2023-05-22T23:14:30.484Z,12.22
2023-05-22T23:16:38.156Z,12.19
2023-05-22T23:18:43.557Z,12.08
2023-05-22T23:20:49.486Z,12.05
2023-05-22T23:22:57.432Z,12.00
2023-05-22T23:25:02.527Z,12.14
2023-05-22T23:27:07.971Z,12.19
2023-05-22T23:29:13.499Z,12.12
2023-05-22T23:31:19.184Z,12.01
2023-05-22T23:33:24.593Z,12.06
2023-05-22T23:35:35.467Z,12.01
2023-05-22T23:37:42.170Z,12.07
2023-05-22T23:39:51.183Z,12.03
2023-05-22T23:41:56.707Z,12.03
2023-05-22T23:44:02.237Z,12.00
2023-05-22T23:46:07.852Z,12.03
2023-05-22T23:48:12.828Z,12.00
2023-05-22T23:50:20.823Z,12.05
2023-05-22T23:52:34.853Z,12.04
2023-05-22T23:54:39.953Z,12.04
2023-05-22T23:56:51.177Z,12.02
2023-05-22T23:58:56.265Z,12.08
